Latest Weather Observations for Sydney - Observatory Hill

IDN60801

Issued at 9:42 am EST Monday 19 August 2019 (issued every 10 minutes, with the page automatically refreshed every 10 minutes)

About weather observations | Map of weather stations | Latest weather observations for NSW | Other Formats
Station Details ID: 066062 Name: SYDNEY (OBSERVATORY HILL) Lat: -33.86 Lon: 151.21 Height: 39.0 m
Data from the previous 72 hours. | See also: Recent months at Sydney - Observatory Hill

* Apparent temperature (App Temp) for Sydney - Observatory Hill is calculated using temperature observations collected at Sydney - Observatory Hill and wind observations collected at Fort Denison, as wind observations are not currently provided for Sydney - Observatory Hill.

Date/Time
EST
Temp
°C
App
Temp
°C
Dew
Point
°C
Rel
Hum
%
Delta-T
°C
Wind Press
QNH
hPa
Press
MSL
hPa
Rain since
9am
mm
Dir  Spd
km/h
Gust
km/h
Spd
kts
Gust
kts
19/09:30am 13.4 5.3 -2.9 32 6.4 WNW 30 - 16 - 1015.3 1015.3 0.0
19/09:00am 12.9 6.9 -1.4 37 5.7 WNW 20 - 11 - 1015.3 1015.3 0.0
19/08:30am 12.4 6.4 -1.5 38 5.5 WNW 20 - 11 - 1015.1 1015.1 0.0
19/08:00am 12.5 6.4 -2.5 35 5.8 WNW 20 - 11 - 1014.8 1014.8 0.0
19/07:30am 12.0 6.2 -1.2 40 5.3 WNW 19 - 10 - 1014.6 1014.6 0.0
19/07:00am 11.6 5.6 -1.2 41 5.1 WNW 20 - 11 - 1014.0 1014.0 0.0
19/06:30am 11.8 3.5 -2.0 38 5.4 WNW 32 - 17 - 1013.5 1013.5 0.0
19/06:00am 11.9 5.1 -1.9 38 5.4 W 24 - 13 - 1013.0 1013.0 0.0
19/05:30am 11.8 5.9 -0.7 42 5.0 W 20 - 11 - 1012.4 1012.4 0.0
19/05:00am 12.0 6.3 0.8 46 4.7 W 20 - 11 - 1012.3 1012.3 0.0
19/04:30am 12.4 6.3 0.5 44 5.0 W 22 - 12 - 1011.8 1011.8 0.0
19/04:00am 12.8 5.6 0.5 43 5.2 W 28 - 15 - 1011.3 1011.3 0.0
19/03:30am 13.2 3.1 0.6 42 5.3 W 43 - 23 - 1011.1 1011.1 0.0
19/03:00am 13.2 6.0 0.9 43 5.2 W 28 - 15 - 1011.3 1011.3 0.0
19/02:30am 13.5 5.6 1.2 43 5.3 WSW 32 - 17 - 1011.2 1011.2 0.0
19/02:00am 13.8 6.1 2.1 45 5.1 WSW 32 - 17 - 1010.9 1010.9 0.0
19/01:30am 15.2 7.6 3.7 46 5.3 W 33 - 18 - 1010.8 1010.8 0.0
19/01:00am 15.8 8.9 4.5 47 5.3 WSW 30 - 16 - 1010.8 1010.8 0.0
19/12:30am 16.1 9.2 6.5 53 4.7 WSW 32 - 17 - 1010.1 1010.1 0.0
19/12:00am 16.5 15.3 8.0 57 4.3 E 4 - 2 - 1009.0 1009.0 0.0
 
Date/Time
EST
Temp
°C
App
Temp
°C
Dew
Point
°C
Rel
Hum
%
Delta-T
°C
Wind Press
QNH
hPa
Press
MSL
hPa
Rain since
9am
mm
Dir  Spd
km/h
Gust
km/h
Spd
kts
Gust
kts
18/11:30pm 16.3 15.6 8.5 60 4.0 WNW 2 - 1 - 1008.7 1008.7 0.0
18/11:00pm 17.2 12.5 9.1 59 4.2 W 24 - 13 - 1009.4 1009.4 0.0
18/10:42pm 17.1 - 10.2 64 3.7 - - - - - 1009.5 1009.5 0.0
18/10:30pm 17.0 12.3 10.6 66 3.4 NNE 26 - 14 - 1007.4 1007.4 0.0
18/10:00pm 17.3 12.3 10.9 66 3.5 NNE 28 - 15 - 1007.5 1007.5 0.0
18/09:30pm 17.5 12.8 10.6 64 3.7 NNE 26 - 14 - 1007.8 1007.8 0.0
18/09:00pm 17.6 14.1 10.9 65 3.6 NNE 20 - 11 - 1008.7 1008.7 0.0
18/08:30pm 17.6 14.2 11.2 66 3.5 NNE 20 - 11 - 1009.7 1009.7 0.0
18/08:00pm 17.8 13.3 11.4 66 3.5 NNE 26 - 14 - 1010.1 1010.1 0.0
18/07:30pm 17.9 13.6 12.1 69 3.2 NNE 26 - 14 - 1010.6 1010.6 0.0
18/07:00pm 18.0 12.8 12.9 72 2.9 NNE 32 - 17 - 1010.9 1010.9 0.0
18/06:30pm 18.0 13.7 13.1 73 2.8 NNE 28 - 15 - 1011.0 1011.0 0.0
18/06:00pm 17.9 13.6 13.2 74 2.7 NNE 28 - 15 - 1011.4 1011.4 0.0
18/05:30pm 18.1 13.0 13.2 73 2.8 NNE 32 - 17 - 1011.6 1011.6 0.0
18/05:00pm 18.3 13.9 13.0 71 3.0 NNE 28 - 15 - 1011.7 1011.7 0.0
18/04:30pm 18.5 12.7 12.7 69 3.2 NNE 35 - 19 - 1011.9 1011.9 0.0
18/04:00pm 19.0 14.4 12.3 65 3.7 NE 28 - 15 - 1012.1 1012.1 0.0
18/03:30pm 19.2 14.5 12.0 63 4.0 NNE 28 - 15 - 1012.4 1012.4 0.0
18/03:00pm 19.2 14.4 11.7 62 4.1 NE 28 - 15 - 1012.9 1012.9 0.0
18/02:30pm 19.3 14.7 11.1 59 4.5 NE 26 - 14 - 1013.6 1013.6 0.0
18/02:00pm 19.7 15.4 10.7 56 4.9 NE 24 - 13 - 1014.2 1014.2 0.0
18/01:30pm 19.2 14.2 11.0 59 4.5 ENE 28 - 15 - 1014.7 1014.7 0.0
18/01:00pm 19.2 14.6 9.7 54 5.0 ENE 24 - 13 - 1015.4 1015.4 0.0
18/12:30pm 19.3 15.3 10.3 56 4.8 ENE 22 - 12 - 1016.3 1016.3 0.0
18/12:00pm 18.9 15.3 10.5 58 4.5 ENE 20 - 11 - 1017.0 1017.0 0.0
18/11:30am 18.4 14.7 10.3 59 4.3 ENE 20 - 11 - 1017.7 1017.7 0.0
18/11:00am 17.7 14.2 10.3 62 3.9 E 19 - 10 - 1018.4 1018.4 0.0
18/10:30am 17.3 17.0 10.0 62 3.9 WSW 2 - 1 - 1019.0 1019.0 0.0
18/10:00am 15.5 14.6 9.2 66 3.2 W 4 - 2 - 1019.3 1019.4 0.0
18/09:30am 13.9 11.8 8.1 68 2.9 W 9 - 5 - 1019.6 1019.7 0.0
18/09:00am 13.2 10.9 7.4 68 2.8 WNW 9 - 5 - 1020.1 1020.1 0.0
18/08:30am 11.7 8.8 6.6 71 2.4 W 11 - 6 - 1020.4 1020.4 0.0
18/08:00am 11.4 7.8 6.9 74 2.1 WNW 15 - 8 - 1020.4 1020.4 0.0
18/07:30am 10.4 7.9 6.4 76 1.9 WNW 9 - 5 - 1020.4 1020.4 0.0
18/07:00am 9.4 6.8 6.1 80 1.5 WNW 9 - 5 - 1020.4 1020.4 0.0
18/06:30am 9.3 6.0 6.2 81 1.4 WNW 13 - 7 - 1020.5 1020.5 0.0
18/06:00am 9.4 6.5 6.3 81 1.4 NW 11 - 6 - 1020.1 1020.1 0.0
18/05:30am 9.7 6.4 6.4 80 1.5 WNW 13 - 7 - 1020.2 1020.2 0.0
18/05:00am 9.9 6.6 6.4 79 1.6 WNW 13 - 7 - 1020.2 1020.2 0.0
18/04:30am 10.0 7.5 6.7 80 1.5 NW 9 - 5 - 1020.3 1020.3 0.0
18/04:00am 10.3 6.0 7.0 80 1.6 W 19 - 10 - 1020.5 1020.5 0.0
18/03:30am 10.2 7.8 6.9 80 1.6 WNW 9 - 5 - 1020.1 1020.1 0.0
18/03:00am 10.5 7.0 7.2 80 1.6 W 15 - 8 - 1020.5 1020.5 0.0
18/02:30am 10.5 6.6 7.2 80 1.6 W 17 - 9 - 1020.9 1020.9 0.0
18/02:00am 10.3 7.2 7.2 81 1.5 W 13 - 7 - 1021.2 1021.2 0.0
18/01:30am 10.4 6.9 7.1 80 1.6 W 15 - 8 - 1021.4 1021.4 0.0
18/01:00am 10.6 7.1 7.3 80 1.6 W 15 - 8 - 1021.7 1021.7 0.0
18/12:30am 10.8 6.9 7.3 79 1.7 W 17 - 9 - 1021.8 1021.8 0.0
18/12:00am 11.1 7.6 7.4 78 1.8 WNW 15 - 8 - 1021.6 1021.6 0.0
 
Date/Time
EST
Temp
°C
App
Temp
°C
Dew
Point
°C
Rel
Hum
%
Delta-T
°C
Wind Press
QNH
hPa
Press
MSL
hPa
Rain since
9am
mm
Dir  Spd
km/h
Gust
km/h
Spd
kts
Gust
kts
17/11:30pm 11.5 8.9 7.6 77 1.9 WNW 11 - 6 - 1021.5 1021.5 0.0
17/11:00pm 11.9 7.8 8.0 77 1.9 W 19 - 10 - 1022.1 1022.1 0.0
17/10:30pm 12.2 8.5 7.9 75 2.1 W 17 - 9 - 1022.0 1022.0 0.0
17/10:00pm 12.7 9.4 8.0 73 2.3 W 15 - 8 - 1021.7 1021.7 0.0
17/09:30pm 14.1 12.7 8.7 70 2.7 NW 6 - 3 - 1021.5 1021.5 0.0
17/09:00pm 14.4 12.9 8.6 68 2.9 SE 6 - 3 - 1021.2 1021.2 0.0
17/08:30pm 14.4 12.4 8.6 68 2.9 SE 9 - 5 - 1021.1 1021.1 0.0
17/08:00pm 14.6 12.2 8.8 68 2.9 SE 11 - 6 - 1021.3 1021.3 0.0
17/07:30pm 14.5 13.3 8.0 65 3.2 ESE 4 - 2 - 1021.2 1021.2 0.0
17/07:00pm 14.7 13.4 7.7 63 3.5 SSE 4 - 2 - 1021.1 1021.1 0.0
17/06:30pm 14.9 13.0 7.5 61 3.7 SSE 7 - 4 - 1020.7 1020.7 0.0
17/06:00pm 15.3 13.4 7.6 60 3.8 SSE 7 - 4 - 1020.6 1020.6 0.0
17/05:30pm 15.7 12.7 7.5 58 4.1 SSE 13 - 7 - 1020.2 1020.2 0.0
17/05:00pm 16.1 13.0 7.1 55 4.4 SSE 13 - 7 - 1019.9 1019.9 0.0
17/04:30pm 17.0 13.1 7.1 52 4.9 SE 17 - 9 - 1019.5 1019.6 0.0
17/04:00pm 18.8 14.3 6.9 46 6.0 SSE 20 - 11 - 1019.4 1019.5 0.0
17/03:30pm 19.3 14.7 6.4 43 6.4 SSE 20 - 11 - 1019.4 1019.5 0.0
17/03:00pm 19.0 13.7 5.1 40 6.7 SSE 22 - 12 - 1019.4 1019.5 0.0
17/02:30pm 19.4 14.4 3.6 35 7.5 S 19 - 10 - 1019.3 1019.4 0.0
17/02:00pm 19.8 14.1 5.1 38 7.2 SSE 24 - 13 - 1019.1 1019.1 0.0
17/01:30pm 19.0 13.4 3.2 35 7.4 S 22 - 12 - 1019.1 1019.1 0.0
17/01:00pm 19.0 13.4 5.5 41 6.6 SSW 24 - 13 - 1019.2 1019.3 0.0
17/12:30pm 19.1 14.7 6.6 44 6.3 SSW 19 - 10 - 1019.4 1019.5 0.0
17/12:00pm 18.3 13.5 5.8 44 6.1 S 20 - 11 - 1019.4 1019.5 0.0
17/11:30am 17.5 12.5 6.4 48 5.5 S 22 - 12 - 1019.6 1019.7 0.0
17/11:00am 17.2 12.8 6.4 49 5.3 S 19 - 10 - 1019.8 1019.8 0.0
17/10:30am 17.1 11.6 6.0 48 5.4 SSW 24 - 13 - 1019.8 1019.8 0.0
17/10:00am 16.6 12.0 5.6 48 5.3 SSW 19 - 10 - 1019.4 1019.5 0.0
17/09:30am 16.0 12.8 5.3 49 5.1 W 11 - 6 - 1019.3 1019.4 0.0
17/09:00am 15.7 11.2 4.1 46 5.4 W 17 - 9 - 1019.2 1019.3 0.0
17/08:30am 14.7 9.6 2.9 45 5.3 W 19 - 10 - 1019.0 1019.0 0.0
17/08:00am 15.1 10.1 1.6 40 5.9 WSW 17 - 9 - 1018.9 1018.9 0.0
17/07:30am 14.1 8.7 1.1 41 5.6 WSW 19 - 10 - 1018.5 1018.5 0.0
17/07:00am 13.7 9.0 1.0 42 5.4 WSW 15 - 8 - 1017.9 1017.9 0.0
17/06:30am 13.8 9.2 1.5 43 5.3 W 15 - 8 - 1017.2 1017.2 0.0
17/06:00am 14.3 9.2 0.6 39 5.8 WSW 17 - 9 - 1016.5 1016.5 0.0
17/05:30am 14.1 9.4 1.1 41 5.6 WNW 15 - 8 - 1015.9 1015.9 0.0
17/05:00am 13.2 7.8 -1.5 36 5.9 WNW 17 - 9 - 1015.6 1015.6 0.0
17/04:30am 12.4 8.1 0.8 45 4.9 WNW 13 - 7 - 1015.2 1015.2 0.0
17/04:00am 12.7 7.8 -0.2 41 5.3 W 15 - 8 - 1015.2 1015.2 0.0
17/03:30am 12.6 7.0 0.0 42 5.2 WNW 19 - 10 - 1015.1 1015.1 0.0
17/03:00am 13.7 8.0 -0.7 37 5.9 WNW 19 - 10 - 1015.1 1015.1 0.0
17/02:30am 15.3 9.2 -4.1 26 7.5 W 19 - 10 - 1015.3 1015.3 0.0
17/02:00am 15.2 8.6 -3.2 28 7.3 WNW 22 - 12 - 1015.1 1015.1 0.0
17/01:30am 15.9 9.8 -3.6 26 7.7 WNW 19 - 10 - 1014.8 1014.8 0.0
17/01:00am 16.8 11.1 -3.9 24 8.2 W 17 - 9 - 1014.6 1014.6 0.0
17/12:30am 17.0 13.8 -3.7 24 8.2 S 4 - 2 - 1014.5 1014.5 0.0
17/12:00am 16.9 14.1 -3.2 25 8.1 NNW 2 - 1 - 1014.4 1014.4 0.0
 
Date/Time
EST
Temp
°C
App
Temp
°C
Dew
Point
°C
Rel
Hum
%
Delta-T
°C
Wind Press
QNH
hPa
Press
MSL
hPa
Rain since
9am
mm
Dir  Spd
km/h
Gust
km/h
Spd
kts
Gust
kts
16/11:30pm 16.9 12.0 -3.2 25 8.1 NNW 13 - 7 - 1014.6 1014.6 0.0
16/11:00pm 17.5 14.6 -3.8 23 8.5 NE 2 - 1 - 1014.9 1014.9 0.0
16/10:30pm 18.1 14.9 -3.9 22 8.8 NNE 4 - 2 - 1015.1 1015.1 0.0
16/10:00pm 18.1 14.4 -3.3 23 8.7 NNW 7 - 4 - 1015.2 1015.2 0.0
16/09:30pm 17.8 15.4 -3.0 24 8.5 CALM 0 - 0 - 1015.4 1015.4 0.0
16/09:00pm 17.9 14.8 -2.9 24 8.5 NNW 4 - 2 - 1015.5 1015.5 0.0
16/08:30pm 18.2 15.4 -3.2 23 8.7 NNW 2 - 1 - 1015.6 1015.6 0.0
16/08:00pm 19.1 15.4 -3.1 22 9.1 WNW 7 - 4 - 1016.0 1016.0 0.0
16/07:30pm 19.6 16.7 -3.9 20 9.6 NNW 2 - 1 - 1016.0 1016.0 0.0
16/07:00pm 18.7 16.0 -2.3 24 8.7 N 2 - 1 - 1016.0 1016.0 0.0
16/06:30pm 19.0 16.2 -3.2 22 9.1 NNE 2 - 1 - 1015.8 1015.8 0.0
16/06:00pm 19.3 16.4 -4.2 20 9.5 WSW 2 - 1 - 1015.6 1015.6 0.0
16/05:30pm 18.6 15.6 5.8 43 6.3 ENE 11 - 6 - 1015.2 1015.2 0.0
16/05:00pm 19.4 16.6 5.1 39 7.0 E 9 - 5 - 1015.2 1015.2 0.0
16/04:30pm 20.0 15.3 3.3 33 7.9 ENE 17 - 9 - 1014.8 1014.8 0.0
16/04:00pm 20.7 16.4 3.4 32 8.2 ENE 15 - 8 - 1014.8 1014.8 0.0
16/03:30pm 20.8 15.6 2.6 30 8.5 ENE 19 - 10 - 1014.7 1014.7 0.0
16/03:00pm 21.7 16.5 2.4 28 9.1 E 19 - 10 - 1014.8 1014.8 0.0
16/02:30pm 22.0 16.7 1.6 26 9.5 E 19 - 10 - 1015.2 1015.2 0.0
16/02:00pm 23.2 18.4 0.3 22 10.5 E 15 - 8 - 1015.6 1015.6 0.0
16/01:30pm 24.1 19.6 -3.3 16 11.8 E 11 - 6 - 1015.8 1015.8 0.0
16/01:00pm 23.5 19.4 -2.9 17 11.4 E 9 - 5 - 1016.3 1016.3 0.0
16/12:30pm 22.3 17.6 -4.7 16 11.1 E 11 - 6 - 1016.8 1016.8 0.0
16/12:00pm 21.3 18.3 0.5 25 9.4 ESE 6 - 3 - 1017.2 1017.2 0.0
16/11:30am 17.7 14.6 0.4 31 7.6 W 6 - 3 - 1018.1 1018.1 0.0
16/11:00am 16.4 12.0 0.5 34 6.9 WNW 13 - 7 - 1018.8 1018.8 0.0
16/10:30am 14.9 10.4 0.0 36 6.3 WNW 13 - 7 - 1019.1 1019.1 0.0
16/10:00am 14.0 9.3 0.6 40 5.7 W 15 - 8 - 1019.2 1019.3 0.0

Other formats

Comma delimited format used in spreadsheet applications
http://www.bom.gov.au/fwo/IDN60801/IDN60801.94768.axf

JavaScript Object Notation format (JSON) in row-major order
http://www.bom.gov.au/fwo/IDN60801/IDN60801.94768.json

Data quality

Most of these data are generated automatically and are frequently updated. Quality checks on data are not normally performed. It is possible for incorrect values to appear. Refer to information at About Latest Weather Observations and please check the disclaimer before using these data.